Time;durP1;ratioP1;P1;durP2;ratioP2;P2;SDS_P1;SDS_P2;PMS_P1;PMS_P2;Temp;Humidity;BMP_temperature;BMP_pressure;BME280_temperature;BME280_humidity;BME280_pressure;Samples;Min_cycle;Max_cycle;Signal;HPM_P1;HPM_P2
2021/04/25 00:00:48;;;;;;;29.85;22.00;;;19.10;36.00;;;;;;5058493;28;20449;-56
2021/04/25 00:03:14;;;;;;;30.23;21.45;;;19.10;36.00;;;;;;5040819;28;20033;-55
2021/04/25 00:05:40;;;;;;;29.30;22.65;;;19.00;36.00;;;;;;5050501;28;20086;-56
2021/04/25 00:08:05;;;;;;;30.35;21.65;;;19.10;36.00;;;;;;5045748;28;20094;-55
2021/04/25 00:10:31;;;;;;;29.73;20.40;;;19.10;35.90;;;;;;5052084;28;20314;-56
2021/04/25 00:12:57;;;;;;;27.33;22.08;;;19.00;35.90;;;;;;5049139;28;20041;-57
2021/04/25 00:15:24;;;;;;;25.42;20.63;;;19.00;35.90;;;;;;5054444;28;20504;-56
2021/04/25 00:17:50;;;;;;;26.98;21.58;;;19.00;36.00;;;;;;5041285;28;20086;-55
2021/04/25 00:20:17;;;;;;;24.98;21.02;;;19.10;36.10;;;;;;5059222;28;20029;-58
2021/04/25 00:22:44;;;;;;;30.25;22.13;;;19.00;36.20;;;;;;5038934;28;20116;-57
2021/04/25 00:25:12;;;;;;;28.80;21.63;;;19.00;36.10;;;;;;5052755;28;20036;-56
2021/04/25 00:27:38;;;;;;;29.75;21.70;;;19.00;36.30;;;;;;5054981;28;20052;-55
2021/04/25 00:30:06;;;;;;;27.42;21.20;;;19.00;36.10;;;;;;5055839;28;20044;-58
2021/04/25 00:32:32;;;;;;;25.92;20.70;;;18.90;36.10;;;;;;5032129;28;20045;-57
2021/04/25 00:34:57;;;;;;;30.15;20.17;;;18.90;36.20;;;;;;5050971;28;20581;-58
2021/04/25 00:37:23;;;;;;;27.25;20.65;;;18.90;36.20;;;;;;5054741;28;20123;-58
2021/04/25 00:39:49;;;;;;;28.42;20.63;;;18.90;36.40;;;;;;5065428;28;20050;-57
2021/04/25 00:42:16;;;;;;;26.13;20.67;;;18.90;36.30;;;;;;5065861;28;20039;-57
2021/04/25 00:44:44;;;;;;;28.15;20.55;;;18.90;36.20;;;;;;5061459;28;20028;-57
2021/04/25 00:47:09;;;;;;;27.52;20.77;;;18.80;36.50;;;;;;5060892;28;20162;-57
2021/04/25 00:49:35;;;;;;;29.08;20.77;;;18.80;36.70;;;;;;5047680;28;20056;-57
2021/04/25 00:52:02;;;;;;;29.23;21.08;;;18.70;36.70;;;;;;5043232;28;20052;-54
2021/04/25 00:54:28;;;;;;;27.20;20.85;;;18.80;36.70;;;;;;5043723;28;20043;-58
2021/04/25 00:56:54;;;;;;;26.35;20.25;;;18.70;36.70;;;;;;5057565;28;20120;-56
2021/04/25 00:59:20;;;;;;;29.27;21.23;;;18.70;36.50;;;;;;5052967;28;20070;-57
2021/04/25 01:01:46;;;;;;;30.38;21.08;;;18.70;36.60;;;;;;5052300;28;20037;-56
2021/04/25 01:04:11;;;;;;;24.75;20.63;;;18.70;36.70;;;;;;5043492;28;20116;-56
2021/04/25 01:06:37;;;;;;;31.55;20.98;;;18.70;36.70;;;;;;5065747;28;20050;-53
2021/04/25 01:09:04;;;;;;;27.40;20.52;;;18.70;36.80;;;;;;5050127;28;20090;-55
2021/04/25 01:11:30;;;;;;;25.90;20.13;;;18.60;36.70;;;;;;5060276;28;20036;-56
2021/04/25 01:13:56;;;;;;;25.08;19.50;;;18.60;36.80;;;;;;5053276;28;20059;-56
2021/04/25 01:16:21;;;;;;;25.38;19.88;;;18.60;36.90;;;;;;5051007;28;20106;-53
2021/04/25 01:18:47;;;;;;;25.45;20.42;;;18.60;37.00;;;;;;5049503;28;20449;-57
2021/04/25 01:21:14;;;;;;;23.85;19.75;;;18.50;36.70;;;;;;5052923;28;20056;-56
2021/04/25 01:23:40;;;;;;;29.75;20.42;;;18.60;37.00;;;;;;5053028;28;20167;-57
2021/04/25 01:26:06;;;;;;;26.00;20.58;;;18.50;36.90;;;;;;5052222;28;20494;-58
2021/04/25 01:28:31;;;;;;;23.45;18.63;;;18.50;37.10;;;;;;5050228;28;20033;-57
2021/04/25 01:30:57;;;;;;;27.83;20.13;;;18.50;37.30;;;;;;5044240;28;20051;-57
2021/04/25 01:33:24;;;;;;;28.02;19.60;;;18.40;37.30;;;;;;5047034;28;20075;-56
2021/04/25 01:35:51;;;;;;;23.30;18.75;;;18.40;37.30;;;;;;5054936;28;20040;-58
2021/04/25 01:38:17;;;;;;;27.35;19.77;;;18.40;37.30;;;;;;5055476;28;20074;-57
2021/04/25 01:40:42;;;;;;;26.90;19.73;;;18.30;37.40;;;;;;5046534;28;20499;-57
2021/04/25 01:43:08;;;;;;;28.73;19.70;;;18.30;37.30;;;;;;5062011;28;20060;-58
2021/04/25 01:45:34;;;;;;;26.98;19.73;;;18.30;37.50;;;;;;5053325;28;20036;-56
2021/04/25 01:48:03;;;;;;;23.05;17.75;;;18.30;37.40;;;;;;5063856;28;20109;-54
2021/04/25 01:50:29;;;;;;;26.88;19.65;;;18.30;37.50;;;;;;5053426;28;20030;-56
2021/04/25 01:52:57;;;;;;;24.42;18.85;;;18.30;37.50;;;;;;5067840;28;20127;-53
2021/04/25 01:55:25;;;;;;;26.55;19.17;;;18.30;37.50;;;;;;5062821;28;20062;-58
2021/04/25 01:57:51;;;;;;;24.80;19.48;;;18.30;37.60;;;;;;5050628;28;20037;-58
2021/04/25 02:00:23;;;;;;;27.17;20.52;;;18.30;37.50;;;;;;5063502;28;20063;-57
2021/04/25 02:02:53;;;;;;;25.95;18.92;;;18.30;37.60;;;;;;5063118;28;20174;-58
2021/04/25 02:05:19;;;;;;;26.55;19.65;;;18.30;37.90;;;;;;5060350;28;20044;-57
2021/04/25 02:07:45;;;;;;;23.65;18.58;;;18.30;37.70;;;;;;5050783;28;20028;-58
2021/04/25 02:10:11;;;;;;;27.00;19.63;;;18.20;37.70;;;;;;5045128;28;20039;-57
2021/04/25 02:12:37;;;;;;;28.13;19.02;;;18.20;37.60;;;;;;5043370;28;20056;-56
2021/04/25 02:15:05;;;;;;;25.85;19.25;;;18.10;37.70;;;;;;5052611;28;20033;-55
2021/04/25 02:17:31;;;;;;;23.65;18.40;;;18.20;37.80;;;;;;5042610;28;20044;-58
2021/04/25 02:19:57;;;;;;;24.27;17.75;;;18.20;37.80;;;;;;5053566;28;20033;-57
2021/04/25 02:22:23;;;;;;;27.23;19.40;;;18.20;37.90;;;;;;5049689;28;20040;-57
2021/04/25 02:24:49;;;;;;;25.77;18.65;;;18.10;37.70;;;;;;5063126;28;20044;-57
2021/04/25 02:27:15;;;;;;;26.98;19.77;;;18.10;37.70;;;;;;5064130;28;20054;-57
2021/04/25 02:29:40;;;;;;;23.38;18.05;;;18.00;37.80;;;;;;5046115;28;20140;-55
2021/04/25 02:32:06;;;;;;;22.60;17.58;;;18.10;37.90;;;;;;5052257;28;20057;-57
2021/04/25 02:34:32;;;;;;;23.45;17.80;;;18.10;38.00;;;;;;5054979;28;20062;-56
2021/04/25 02:36:58;;;;;;;25.00;17.42;;;18.00;38.10;;;;;;5067358;28;20036;-59
2021/04/25 02:39:24;;;;;;;26.10;17.75;;;18.00;38.20;;;;;;5065686;28;20044;-56
2021/04/25 02:41:49;;;;;;;27.30;18.45;;;18.00;38.30;;;;;;5056430;28;20036;-56
2021/04/25 02:44:15;;;;;;;21.40;17.33;;;18.00;38.30;;;;;;5044667;28;20033;-58
2021/04/25 02:46:41;;;;;;;24.67;17.75;;;17.90;38.20;;;;;;5051466;28;20037;-58
2021/04/25 02:49:06;;;;;;;25.77;17.92;;;17.90;38.20;;;;;;5047124;28;20069;-56
2021/04/25 02:51:32;;;;;;;24.13;17.98;;;17.90;38.40;;;;;;5057740;28;20094;-57
2021/04/25 02:53:57;;;;;;;29.55;17.13;;;17.90;38.20;;;;;;5057571;28;20036;-63
2021/04/25 02:56:23;;;;;;;23.10;17.30;;;17.80;38.40;;;;;;5068730;28;20043;-54
2021/04/25 02:58:49;;;;;;;21.98;17.25;;;17.80;38.30;;;;;;5056539;28;20052;-58
2021/04/25 03:01:14;;;;;;;21.15;16.67;;;17.80;38.40;;;;;;5034054;28;20029;-58
2021/04/25 03:03:40;;;;;;;22.73;16.60;;;17.80;38.30;;;;;;5045990;28;20064;-57
2021/04/25 03:06:06;;;;;;;23.10;16.55;;;17.70;38.40;;;;;;5050537;28;20037;-58
2021/04/25 03:08:31;;;;;;;22.08;16.35;;;17.70;38.40;;;;;;5051768;28;20064;-57
2021/04/25 03:10:57;;;;;;;24.50;16.75;;;17.80;38.40;;;;;;5069573;28;20410;-57
2021/04/25 03:13:22;;;;;;;21.42;16.10;;;17.70;39.00;;;;;;5051441;28;20475;-57
2021/04/25 03:15:48;;;;;;;24.92;16.23;;;17.70;38.40;;;;;;5047327;28;20045;-57
2021/04/25 03:18:14;;;;;;;23.20;16.40;;;17.70;38.50;;;;;;5045832;28;20041;-57
2021/04/25 03:20:40;;;;;;;22.08;16.83;;;17.70;38.50;;;;;;5040890;28;20410;-58
2021/04/25 03:23:05;;;;;;;21.38;16.60;;;17.70;38.70;;;;;;5049021;28;20121;-57
2021/04/25 03:25:31;;;;;;;21.85;16.95;;;17.70;38.50;;;;;;5055304;28;20474;-56
2021/04/25 03:27:57;;;;;;;25.00;17.27;;;17.70;38.70;;;;;;5054531;28;20433;-57
2021/04/25 03:30:22;;;;;;;22.48;16.88;;;17.60;38.70;;;;;;5050703;28;20486;-57
2021/04/25 03:32:48;;;;;;;20.15;17.55;;;17.60;38.70;;;;;;5044607;28;20406;-58
2021/04/25 03:35:16;;;;;;;24.85;17.08;;;17.60;38.60;;;;;;5049672;28;20037;-57
2021/04/25 03:37:42;;;;;;;23.58;16.75;;;17.60;38.80;;;;;;5055424;28;20041;-57
2021/04/25 03:40:11;;;;;;;21.42;16.30;;;17.60;38.80;;;;;;5050230;28;20044;-57
2021/04/25 03:42:37;;;;;;;20.67;16.15;;;17.60;38.90;;;;;;5048203;28;20044;-58
2021/04/25 03:45:05;;;;;;;22.20;16.27;;;17.60;38.70;;;;;;5060860;28;20039;-56
2021/04/25 03:47:31;;;;;;;20.83;16.13;;;17.60;38.70;;;;;;5067975;28;20043;-58
2021/04/25 03:49:56;;;;;;;21.25;17.00;;;17.50;38.70;;;;;;5063587;28;20040;-57
2021/04/25 03:52:22;;;;;;;20.80;16.10;;;17.50;38.90;;;;;;5048419;28;20132;-55
2021/04/25 03:54:48;;;;;;;22.00;16.40;;;17.50;38.80;;;;;;5048704;28;20418;-56
2021/04/25 03:57:13;;;;;;;18.83;15.55;;;17.50;38.80;;;;;;5043542;28;20049;-55
2021/04/25 03:59:39;;;;;;;23.27;16.08;;;17.50;38.70;;;;;;5052983;28;20035;-56
2021/04/25 04:02:05;;;;;;;21.15;16.60;;;17.50;38.70;;;;;;5054339;28;20025;-55
2021/04/25 04:04:30;;;;;;;21.98;16.63;;;17.50;38.90;;;;;;5067284;28;20028;-57
2021/04/25 04:06:56;;;;;;;20.33;16.05;;;17.40;39.20;;;;;;5046017;28;20063;-58
2021/04/25 04:09:22;;;;;;;19.75;15.23;;;17.40;39.10;;;;;;5053712;28;20902;-55
2021/04/25 04:11:47;;;;;;;21.30;15.68;;;17.30;39.30;;;;;;5048484;28;20525;-58
2021/04/25 04:14:13;;;;;;;18.02;15.65;;;17.30;39.10;;;;;;5045717;28;20037;-57
2021/04/25 04:16:39;;;;;;;21.20;15.15;;;17.40;39.00;;;;;;5044065;28;20025;-57
2021/04/25 04:19:05;;;;;;;19.80;14.85;;;17.30;39.40;;;;;;5053165;28;20375;-57
2021/04/25 04:21:32;;;;;;;18.90;14.40;;;17.30;39.40;;;;;;5042169;28;20041;-56
2021/04/25 04:23:57;;;;;;;19.67;14.77;;;17.20;39.50;;;;;;5026956;28;20399;-54
2021/04/25 04:26:23;;;;;;;21.17;15.45;;;17.20;39.50;;;;;;5040630;28;20033;-56
2021/04/25 04:28:48;;;;;;;18.83;14.25;;;17.30;39.50;;;;;;5052941;28;20041;-57
2021/04/25 04:31:14;;;;;;;20.02;15.65;;;17.30;39.30;;;;;;5051119;28;20043;-58
2021/04/25 04:33:40;;;;;;;25.25;15.85;;;17.20;39.40;;;;;;5055751;28;20406;-56
2021/04/25 04:36:06;;;;;;;19.45;15.25;;;17.30;39.40;;;;;;5053233;28;20065;-56
2021/04/25 04:38:32;;;;;;;19.75;14.65;;;17.30;39.60;;;;;;5042194;28;20037;-59
2021/04/25 04:40:58;;;;;;;18.38;14.98;;;17.20;39.30;;;;;;5047079;28;20055;-57
2021/04/25 04:43:24;;;;;;;20.92;14.77;;;17.20;39.40;;;;;;5059918;28;20441;-58
2021/04/25 04:45:51;;;;;;;22.45;15.45;;;17.30;39.40;;;;;;5040322;28;20045;-57
2021/04/25 04:48:17;;;;;;;17.70;14.18;;;17.20;39.30;;;;;;5056941;28;20068;-57
2021/04/25 04:50:43;;;;;;;21.92;14.90;;;17.30;39.30;;;;;;5048518;28;20075;-58
2021/04/25 04:53:08;;;;;;;21.17;15.18;;;17.30;39.20;;;;;;5062738;28;20090;-57
2021/04/25 04:55:34;;;;;;;22.88;15.82;;;17.30;39.20;;;;;;5065960;28;20063;-57
2021/04/25 04:57:59;;;;;;;19.77;14.57;;;17.30;39.30;;;;;;5052687;28;20071;-56
2021/04/25 05:00:25;;;;;;;20.33;15.18;;;17.30;39.30;;;;;;5048705;28;20041;-58
2021/04/25 05:02:51;;;;;;;20.25;15.27;;;17.30;39.40;;;;;;5029142;28;20082;-58
2021/04/25 05:05:17;;;;;;;21.23;15.25;;;17.30;39.20;;;;;;5059195;28;20040;-58
2021/04/25 05:07:42;;;;;;;22.10;15.68;;;17.30;39.40;;;;;;5051064;28;20060;-58
2021/04/25 05:10:08;;;;;;;21.92;15.75;;;17.30;39.60;;;;;;5046573;28;20045;-58
2021/04/25 05:12:35;;;;;;;23.23;16.38;;;17.30;39.40;;;;;;5038503;28;20037;-58
2021/04/25 05:15:00;;;;;;;21.08;15.48;;;17.30;39.30;;;;;;5044718;28;20086;-57
2021/04/25 05:17:26;;;;;;;21.67;16.83;;;17.30;39.40;;;;;;5033572;28;20124;-55
2021/04/25 05:20:29;;;;;;;22.45;15.40;;;17.40;39.40;;;;;;5055068;28;20499;-57
2021/04/25 05:22:59;;;;;;;21.40;15.05;;;17.40;39.70;;;;;;5007066;28;20390;-58
2021/04/25 05:25:24;;;;;;;21.10;14.85;;;17.30;39.20;;;;;;5054300;28;20040;-57
2021/04/25 05:27:50;;;;;;;20.23;15.23;;;17.40;39.30;;;;;;5050513;28;20478;-57
2021/04/25 05:30:16;;;;;;;25.52;15.73;;;17.40;38.80;;;;;;5058374;28;20378;-55
2021/04/25 05:32:42;;;;;;;22.02;16.27;;;17.40;39.10;;;;;;5033039;28;20530;-57
2021/04/25 05:35:08;;;;;;;23.17;15.25;;;17.40;39.50;;;;;;5038509;28;20067;-57
2021/04/25 05:37:34;;;;;;;22.65;15.77;;;17.50;38.90;;;;;;5061648;28;20552;-59
2021/04/25 05:40:00;;;;;;;24.73;15.05;;;17.50;39.10;;;;;;5060340;28;20040;-58
2021/04/25 05:42:25;;;;;;;25.42;16.17;;;17.40;38.80;;;;;;5063768;28;20469;-58
2021/04/25 05:44:51;;;;;;;19.83;14.77;;;17.50;38.80;;;;;;5034767;28;20045;-58
2021/04/25 05:47:17;;;;;;;23.08;15.65;;;17.50;39.30;;;;;;5043496;28;20597;-56
2021/04/25 05:49:43;;;;;;;21.20;15.90;;;17.60;39.20;;;;;;5045265;28;20043;-59
2021/04/25 05:52:08;;;;;;;19.30;15.30;;;17.60;39.00;;;;;;5048443;28;20128;-57
2021/04/25 05:54:34;;;;;;;19.52;15.25;;;17.60;39.00;;;;;;5042146;28;20547;-58
2021/04/25 05:57:00;;;;;;;20.70;15.48;;;17.60;39.10;;;;;;5043156;28;20044;-58
2021/04/25 05:59:26;;;;;;;22.42;15.65;;;17.60;38.90;;;;;;5047026;28;20045;-57
2021/04/25 06:01:51;;;;;;;20.25;15.93;;;17.60;38.70;;;;;;5042000;28;20043;-58
2021/04/25 06:04:17;;;;;;;21.00;16.08;;;17.70;38.70;;;;;;5064379;28;20036;-58
2021/04/25 06:06:43;;;;;;;19.63;15.57;;;17.70;39.00;;;;;;5049695;28;20033;-59
2021/04/25 06:09:08;;;;;;;20.63;16.15;;;17.70;38.60;;;;;;5061648;28;20462;-57
2021/04/25 06:11:34;;;;;;;19.35;15.45;;;17.70;38.80;;;;;;5052827;28;20171;-59
2021/04/25 06:14:01;;;;;;;22.63;15.75;;;17.80;39.00;;;;;;5050969;28;20390;-59
2021/04/25 06:16:27;;;;;;;18.98;14.55;;;17.80;39.00;;;;;;5058292;28;20037;-58
2021/04/25 06:18:52;;;;;;;23.98;15.57;;;17.80;38.90;;;;;;5055736;28;20041;-58
2021/04/25 06:21:21;;;;;;;21.27;14.60;;;17.90;38.40;;;;;;5045749;28;20034;-59
2021/04/25 06:23:47;;;;;;;21.35;15.57;;;17.80;37.50;;;;;;5060916;28;20383;-59
2021/04/25 06:26:12;;;;;;;21.90;14.82;;;17.90;37.60;;;;;;5042965;28;20106;-58
2021/04/25 06:28:38;;;;;;;24.02;15.70;;;17.90;37.70;;;;;;5049872;28;20052;-59
2021/04/25 06:31:04;;;;;;;20.08;13.25;;;17.90;37.30;;;;;;5047366;28;20112;-59
2021/04/25 06:33:29;;;;;;;19.73;14.52;;;18.00;37.40;;;;;;5054453;28;20087;-61
2021/04/25 06:35:55;;;;;;;18.00;13.95;;;18.00;37.30;;;;;;5063617;28;20124;-58
2021/04/25 06:38:21;;;;;;;20.60;14.38;;;18.00;37.00;;;;;;5050540;28;22107;-58
2021/04/25 06:40:47;;;;;;;19.75;13.57;;;17.90;36.30;;;;;;5062027;28;20081;-58
2021/04/25 06:43:13;;;;;;;20.15;14.25;;;18.00;36.60;;;;;;5051998;28;20037;-57
2021/04/25 06:45:38;;;;;;;18.48;13.73;;;18.00;36.70;;;;;;5056840;28;20037;-58
2021/04/25 06:48:05;;;;;;;19.42;14.07;;;18.10;36.50;;;;;;5046434;28;20410;-58
2021/04/25 06:50:30;;;;;;;19.05;14.10;;;18.00;36.10;;;;;;5050204;28;20503;-59
2021/04/25 06:52:56;;;;;;;27.10;15.10;;;18.00;36.10;;;;;;5045507;28;20158;-59
2021/04/25 06:55:23;;;;;;;19.42;14.23;;;18.10;36.40;;;;;;5053102;28;20094;-58
2021/04/25 06:57:50;;;;;;;19.77;14.23;;;18.10;36.20;;;;;;5046192;28;21011;-58
2021/04/25 07:00:17;;;;;;;18.92;14.18;;;18.10;36.70;;;;;;5048409;28;20039;-58
2021/04/25 07:02:43;;;;;;;19.02;13.43;;;18.10;36.10;;;;;;5057072;28;20080;-58
2021/04/25 07:05:10;;;;;;;18.77;14.25;;;18.10;36.20;;;;;;5054087;28;20126;-57
2021/04/25 07:07:35;;;;;;;24.33;14.60;;;18.20;36.20;;;;;;5050321;28;20075;-58
2021/04/25 07:10:03;;;;;;;20.23;14.23;;;18.30;36.20;;;;;;5066902;28;20079;-59
2021/04/25 07:12:28;;;;;;;18.90;14.45;;;18.20;35.80;;;;;;5067913;28;20051;-58
2021/04/25 07:14:56;;;;;;;21.23;14.85;;;18.20;35.80;;;;;;5059008;28;20037;-57
2021/04/25 07:17:22;;;;;;;17.15;13.45;;;18.30;35.50;;;;;;5061643;28;20045;-59
2021/04/25 07:19:48;;;;;;;17.50;12.80;;;18.30;35.50;;;;;;5049035;28;20051;-58
2021/04/25 07:22:13;;;;;;;19.73;14.13;;;18.30;35.30;;;;;;5055645;28;20076;-59
2021/04/25 07:24:39;;;;;;;19.83;13.50;;;18.40;35.20;;;;;;5062240;28;20032;-56
2021/04/25 07:27:05;;;;;;;18.27;13.25;;;18.40;35.30;;;;;;5055502;28;20044;-59
2021/04/25 07:29:31;;;;;;;21.00;14.35;;;18.30;35.20;;;;;;5043772;28;20032;-59
2021/04/25 07:31:58;;;;;;;19.00;13.68;;;18.40;35.40;;;;;;5052329;28;20059;-56
2021/04/25 07:34:24;;;;;;;19.38;13.15;;;18.40;35.10;;;;;;5043414;28;20170;-57
2021/04/25 07:36:50;;;;;;;20.05;14.00;;;18.50;34.40;;;;;;5059476;28;20115;-58
2021/04/25 07:39:15;;;;;;;17.58;12.90;;;18.50;34.30;;;;;;5053349;28;20036;-57
2021/04/25 07:41:41;;;;;;;19.25;12.93;;;18.50;33.90;;;;;;5056764;28;20054;-57
2021/04/25 07:44:07;;;;;;;22.20;13.50;;;18.60;34.00;;;;;;5044033;28;20047;-59
2021/04/25 07:46:32;;;;;;;16.63;12.93;;;18.60;34.00;;;;;;5045158;28;20051;-58
2021/04/25 07:48:58;;;;;;;17.02;14.18;;;18.70;33.70;;;;;;5049198;28;20037;-58
2021/04/25 07:51:24;;;;;;;15.27;12.68;;;18.70;34.10;;;;;;5025724;28;20115;-58
2021/04/25 07:53:52;;;;;;;14.07;11.05;;;18.80;33.80;;;;;;5035066;28;20045;-57
2021/04/25 07:56:18;;;;;;;18.33;14.27;;;18.80;33.40;;;;;;5047871;28;20121;-58
2021/04/25 07:58:44;;;;;;;15.32;12.57;;;18.80;34.00;;;;;;5059173;28;20047;-58
2021/04/25 08:01:10;;;;;;;16.42;11.88;;;18.80;33.30;;;;;;5052033;28;20045;-57
2021/04/25 08:03:36;;;;;;;13.65;11.45;;;18.90;32.40;;;;;;5036652;28;20048;-58
2021/04/25 08:06:04;;;;;;;16.48;12.65;;;19.00;32.40;;;;;;5058958;28;20342;-59
2021/04/25 08:08:29;;;;;;;16.67;11.70;;;19.00;32.80;;;;;;5057992;28;20040;-62
2021/04/25 08:10:55;;;;;;;17.58;11.32;;;19.00;32.50;;;;;;5047819;28;20039;-59
2021/04/25 08:13:21;;;;;;;16.45;11.93;;;19.10;32.30;;;;;;5053395;28;20068;-57
2021/04/25 08:15:46;;;;;;;16.60;11.73;;;19.10;32.50;;;;;;5037428;28;20094;-58
2021/04/25 08:18:12;;;;;;;15.50;12.65;;;19.20;32.70;;;;;;5028448;28;20041;-56
2021/04/25 08:20:38;;;;;;;17.48;13.60;;;19.20;32.60;;;;;;5020531;28;20044;-59
2021/04/25 08:23:03;;;;;;;17.67;13.88;;;19.30;32.50;;;;;;5041138;28;20072;-58
2021/04/25 08:25:29;;;;;;;18.00;12.45;;;19.40;32.60;;;;;;5060510;28;20036;-59
2021/04/25 08:27:55;;;;;;;16.17;12.63;;;19.50;32.50;;;;;;5053787;28;20041;-58
2021/04/25 08:30:22;;;;;;;16.17;12.05;;;19.50;32.20;;;;;;5031762;28;20090;-57
2021/04/25 08:32:47;;;;;;;18.65;14.80;;;19.50;31.90;;;;;;5030379;28;20048;-58
2021/04/25 08:35:13;;;;;;;18.10;13.63;;;19.50;32.30;;;;;;5052858;28;20051;-57
2021/04/25 08:37:39;;;;;;;17.65;13.95;;;19.50;32.20;;;;;;5043309;28;20048;-56
2021/04/25 08:40:06;;;;;;;19.75;14.07;;;19.60;32.60;;;;;;5035467;28;20036;-58
2021/04/25 08:42:32;;;;;;;20.83;15.55;;;19.70;32.70;;;;;;5041807;28;20045;-57
2021/04/25 08:44:59;;;;;;;20.30;13.85;;;19.60;32.70;;;;;;5046996;28;20041;-56
2021/04/25 08:47:28;;;;;;;19.35;14.07;;;19.70;32.80;;;;;;5034366;28;20459;-58
2021/04/25 08:49:58;;;;;;;18.55;14.20;;;19.80;32.70;;;;;;5042865;28;20045;-56
2021/04/25 08:52:25;;;;;;;19.58;15.63;;;19.90;32.80;;;;;;5041599;28;20048;-56
2021/04/25 08:54:52;;;;;;;17.60;14.63;;;19.90;32.70;;;;;;5039033;28;20049;-57
2021/04/25 08:57:17;;;;;;;18.85;14.25;;;19.90;32.60;;;;;;5027141;28;20042;-56
2021/04/25 08:59:43;;;;;;;17.95;14.80;;;20.00;32.50;;;;;;5047624;28;20037;-56
2021/04/25 09:02:09;;;;;;;19.10;14.82;;;20.00;32.70;;;;;;5035581;28;20040;-56
2021/04/25 09:04:34;;;;;;;21.35;14.73;;;20.10;32.80;;;;;;5040837;28;20516;-56
2021/04/25 09:07:14;;;;;;;20.48;16.42;;;20.10;32.90;;;;;;5024067;28;20045;-55
2021/04/25 09:09:47;;;;;;;20.85;15.52;;;20.10;33.40;;;;;;5017735;28;20040;-54
2021/04/25 09:12:30;;;;;;;20.23;16.10;;;20.10;33.60;;;;;;5050822;28;20075;-59
2021/04/25 09:14:55;;;;;;;23.90;18.52;;;20.10;33.40;;;;;;5051918;28;20037;-60
2021/04/25 09:17:21;;;;;;;21.80;16.83;;;20.10;33.70;;;;;;5042290;28;20087;-60
2021/04/25 09:19:58;;;;;;;19.75;16.92;;;20.20;33.80;;;;;;5041221;28;20119;-60
2021/04/25 09:22:47;;;;;;;20.75;17.13;;;20.20;33.70;;;;;;5042879;28;20041;-59
2021/04/25 09:25:17;;;;;;;20.23;17.10;;;20.30;33.70;;;;;;5019083;28;20069;-60
2021/04/25 09:27:45;;;;;;;20.38;15.60;;;20.30;33.70;;;;;;5047459;28;20040;-60
2021/04/25 09:30:12;;;;;;;19.88;17.20;;;20.40;33.70;;;;;;5040347;28;20144;-60
2021/04/25 09:32:38;;;;;;;21.65;17.45;;;20.40;33.80;;;;;;5043313;28;20396;-59
2021/04/25 09:35:16;;;;;;;25.40;18.73;;;20.50;33.80;;;;;;5047348;28;20046;-60
2021/04/25 09:37:44;;;;;;;19.42;16.70;;;20.60;33.40;;;;;;5055339;28;20091;-59
2021/04/25 09:40:24;;;;;;;21.35;17.40;;;20.60;33.30;;;;;;5052895;28;20033;-59
2021/04/25 09:43:10;;;;;;;20.52;15.90;;;20.60;32.20;;;;;;5050085;28;20501;-59
2021/04/25 09:45:36;;;;;;;21.73;17.80;;;20.70;32.80;;;;;;5052583;28;20064;-59
2021/04/25 09:48:25;;;;;;;22.50;18.20;;;20.60;33.20;;;;;;5064317;28;20063;-61
2021/04/25 09:51:26;;;;;;;24.33;18.70;;;20.60;32.20;;;;;;5057830;28;20040;-60
2021/04/25 09:53:52;;;;;;;24.73;18.48;;;20.80;32.80;;;;;;4932112;28;20276;-60
2021/04/25 09:56:20;;;;;;;20.90;16.85;;;20.90;32.30;;;;;;5028430;28;21389;-60
2021/04/25 09:58:58;;;;;;;22.27;17.58;;;20.80;31.80;;;;;;5047815;28;20498;-60
2021/04/25 10:01:34;;;;;;;26.77;17.63;;;21.10;32.70;;;;;;5053634;28;20064;-60
2021/04/25 10:04:02;;;;;;;23.40;17.73;;;21.00;31.10;;;;;;5051132;28;20530;-60
2021/04/25 10:06:29;;;;;;;21.92;16.83;;;21.30;40.20;;;;;;5035382;28;20091;-61
2021/04/25 10:08:55;;;;;;;23.27;18.65;;;21.10;31.40;;;;;;5055266;28;20037;-61
2021/04/25 10:11:23;;;;;;;24.85;18.25;;;21.10;31.50;;;;;;5042613;28;20548;-60
2021/04/25 10:13:48;;;;;;;26.25;19.65;;;21.20;31.50;;;;;;5051232;28;20048;-60
2021/04/25 10:16:19;;;;;;;23.02;18.13;;;21.20;31.30;;;;;;5043528;28;20033;-60
2021/04/25 10:18:45;;;;;;;25.55;20.25;;;21.30;31.30;;;;;;5051617;28;20095;-60
2021/04/25 10:21:11;;;;;;;25.38;19.73;;;21.70;36.00;;;;;;5045434;28;20648;-60
2021/04/25 10:23:37;;;;;;;22.83;19.58;;;21.30;31.50;;;;;;5065306;28;20482;-61
2021/04/25 10:26:14;;;;;;;24.40;21.27;;;21.40;31.50;;;;;;5056686;28;20049;-61
2021/04/25 10:28:53;;;;;;;24.95;20.52;;;21.60;31.00;;;;;;5049396;28;20033;-61
2021/04/25 10:31:27;;;;;;;26.55;21.13;;;21.60;31.10;;;;;;5058969;28;20032;-61
2021/04/25 10:34:04;;;;;;;25.77;19.73;;;21.70;30.90;;;;;;5062542;28;20105;-60
2021/04/25 10:36:50;;;;;;;27.52;20.27;;;22.00;30.10;;;;;;5031673;28;20056;-61
2021/04/25 10:39:36;;;;;;;26.55;19.92;;;22.50;40.30;;;;;;5031991;28;20097;-60
2021/04/25 10:42:17;;;;;;;29.00;21.98;;;22.10;30.00;;;;;;5048687;28;20052;-61
2021/04/25 10:45:04;;;;;;;28.77;21.30;;;22.20;29.80;;;;;;5047788;28;20072;-60
2021/04/25 10:47:32;;;;;;;25.33;20.02;;;22.20;30.20;;;;;;5052594;28;20044;-60
2021/04/25 10:50:18;;;;;;;25.90;19.58;;;22.40;30.00;;;;;;5063437;28;20033;-61
2021/04/25 10:52:50;;;;;;;25.95;18.45;;;22.70;29.10;;;;;;4989283;28;20044;-61
2021/04/25 10:55:33;;;;;;;28.77;19.70;;;22.60;28.50;;;;;;5056062;28;20044;-61
2021/04/25 10:58:07;;;;;;;26.77;18.65;;;22.70;28.80;;;;;;5062269;28;20036;-61
2021/04/25 11:03:02;;;;;;;29.17;19.70;;;22.90;28.20;;;;;;5052668;28;20037;-59
2021/04/25 11:05:37;;;;;;;23.75;17.85;;;22.90;27.70;;;;;;5051426;28;20040;-60
2021/04/25 11:08:12;;;;;;;25.33;19.42;;;23.00;26.90;;;;;;5054600;28;20037;-60
2021/04/25 11:10:47;;;;;;;26.00;20.45;;;23.10;27.50;;;;;;5062223;28;20051;-58
2021/04/25 11:13:47;;;;;;;32.67;19.83;;;23.30;27.20;;;;;;5047155;28;20131;-57
2021/04/25 11:16:19;;;;;;;28.42;20.52;;;23.50;27.10;;;;;;5020585;28;20037;-55
2021/04/25 11:19:01;;;;;;;33.78;20.40;;;23.60;27.40;;;;;;5045737;28;20055;-59
2021/04/25 11:21:30;;;;;;;29.58;22.85;;;23.90;27.80;;;;;;5051859;28;20044;-57
2021/04/25 11:23:58;;;;;;;29.88;20.88;;;23.90;30.50;;;;;;5032128;28;20376;-57
2021/04/25 11:26:36;;;;;;;29.25;22.02;;;24.00;27.70;;;;;;5048144;28;20033;-58
2021/04/25 11:29:25;;;;;;;29.73;21.80;;;24.20;27.10;;;;;;5042647;28;20032;-58
2021/04/25 11:31:54;;;;;;;30.27;22.85;;;28.80;23.30;;;;;;5030507;28;20053;-58
2021/04/25 11:34:26;;;;;;;29.88;20.63;;;29.10;23.40;;;;;;5046193;28;20083;-57
2021/04/25 11:37:05;;;;;;;28.95;20.02;;;28.40;23.20;;;;;;5039707;28;20041;-57
2021/04/25 11:39:45;;;;;;;26.33;21.08;;;28.40;22.50;;;;;;5043800;28;20425;-57
2021/04/25 11:42:32;;;;;;;26.90;20.17;;;27.70;22.10;;;;;;5026848;28;20040;-56
2021/04/25 11:45:25;;;;;;;28.27;21.38;;;28.00;22.60;;;;;;5050938;28;20091;-56
2021/04/25 11:47:54;;;;;;;29.42;21.13;;;27.50;22.10;;;;;;5015357;28;20145;-57
2021/04/25 11:50:25;;;;;;;30.33;22.35;;;27.20;23.20;;;;;;5048343;28;20820;-58
2021/04/25 11:52:51;;;;;;;27.67;19.70;;;27.10;23.30;;;;;;5047233;28;20071;-57
2021/04/25 11:55:18;;;;;;;26.80;20.23;;;27.60;22.80;;;;;;5041491;28;20595;-57
2021/04/25 11:57:49;;;;;;;30.42;21.40;;;28.10;22.60;;;;;;5049796;28;20036;-57
2021/04/25 12:00:15;;;;;;;31.13;22.73;;;28.90;21.90;;;;;;5043192;28;20061;-58
2021/04/25 12:02:50;;;;;;;31.05;22.35;;;28.00;22.80;;;;;;5024667;28;20069;-56
2021/04/25 12:05:38;;;;;;;30.40;22.55;;;30.00;21.30;;;;;;5053080;28;20053;-58
2021/04/25 12:08:12;;;;;;;27.27;20.25;;;30.20;20.50;;;;;;5047945;28;20045;-59
2021/04/25 12:10:49;;;;;;;32.95;22.08;;;29.40;21.60;;;;;;5053543;28;20091;-60
2021/04/25 12:13:19;;;;;;;28.80;21.23;;;29.30;21.30;;;;;;5044830;28;20044;-61
2021/04/25 12:15:55;;;;;;;29.92;21.80;;;29.40;20.70;;;;;;5043261;28;20033;-60
2021/04/25 12:18:37;;;;;;;28.98;22.42;;;29.10;20.70;;;;;;5047923;28;20039;-59
2021/04/25 12:21:06;;;;;;;25.50;19.45;;;28.70;21.60;;;;;;5038359;28;20044;-61
2021/04/25 12:23:34;;;;;;;32.22;22.80;;;29.00;22.00;;;;;;5041748;28;20033;-60
2021/04/25 12:26:09;;;;;;;28.52;19.73;;;29.60;21.40;;;;;;5049574;28;20046;-59
2021/04/25 12:28:47;;;;;;;28.80;20.92;;;30.40;21.00;;;;;;5062086;28;20044;-60
2021/04/25 12:31:15;;;;;;;26.63;19.08;;;30.30;21.40;;;;;;5043007;28;20045;-60
2021/04/25 12:33:44;;;;;;;26.88;20.80;;;30.20;21.50;;;;;;5046421;28;20071;-60
2021/04/25 12:36:15;;;;;;;29.38;21.58;;;30.10;20.90;;;;;;5024402;28;20041;-60